Time;durP1;ratioP1;P1;durP2;ratioP2;P2;SDS_P1;SDS_P2;PMS_P1;PMS_P2;Temp;Humidity;BMP_temperature;BMP_pressure;BME280_temperature;BME280_humidity;BME280_pressure;Samples;Min_cycle;Max_cycle;Signal;HPM_P1;HPM_P2
2020/12/13 00:00:35;;;;;;;43.35;30.00;;;;;;;;;;5073750;28;20184;-66
2020/12/13 00:03:02;;;;;;;43.08;32.22;;;;;;;;;;5073698;28;20302;-66
2020/12/13 00:05:29;;;;;;;43.67;29.73;;;;;;;;;;5073677;28;20188;-66
2020/12/13 00:07:56;;;;;;;35.90;28.50;;;;;;;;;;5073874;28;20204;-66
2020/12/13 00:10:24;;;;;;;40.80;30.50;;;;;;;;;;5073706;28;20619;-66
2020/12/13 00:12:51;;;;;;;42.90;29.67;;;;;;;;;;5073614;28;20572;-66
2020/12/13 00:15:18;;;;;;;45.08;32.00;;;;;;;;;;5072720;28;20309;-66
2020/12/13 00:17:47;;;;;;;42.25;27.02;;;;;;;;;;5073442;28;20194;-66
2020/12/13 00:20:13;;;;;;;38.47;28.48;;;;;;;;;;5059640;28;20196;-65
2020/12/13 00:22:40;;;;;;;40.30;29.30;;;;;;;;;;5071501;28;20581;-65
2020/12/13 00:25:07;;;;;;;43.45;28.48;;;;;;;;;;5073348;28;20208;-66
2020/12/13 00:27:34;;;;;;;34.85;28.40;;;;;;;;;;5073031;28;20203;-65
2020/12/13 00:30:01;;;;;;;37.08;27.10;;;;;;;;;;5071947;28;20223;-65
2020/12/13 00:32:29;;;;;;;35.53;26.27;;;;;;;;;;5073013;28;20693;-65
2020/12/13 00:34:56;;;;;;;39.28;28.35;;;;;;;;;;5073194;28;20192;-65
2020/12/13 00:37:26;;;;;;;37.78;28.33;;;;;;;;;;5072286;28;20204;-65
2020/12/13 00:39:53;;;;;;;41.47;29.50;;;;;;;;;;5073289;28;20219;-65
2020/12/13 00:42:19;;;;;;;36.80;28.77;;;;;;;;;;5073352;28;20207;-65
2020/12/13 00:44:46;;;;;;;38.80;27.65;;;;;;;;;;5073664;28;20194;-65
2020/12/13 00:47:12;;;;;;;36.42;25.67;;;;;;;;;;5073557;28;20203;-65
2020/12/13 00:49:39;;;;;;;35.95;27.77;;;;;;;;;;5073130;28;20667;-66
2020/12/13 00:52:06;;;;;;;38.95;27.98;;;;;;;;;;5073899;28;20271;-65
2020/12/13 00:54:35;;;;;;;38.35;27.73;;;;;;;;;;5074007;28;20196;-65
2020/12/13 00:57:04;;;;;;;32.83;26.70;;;;;;;;;;5074311;28;20192;-65
2020/12/13 00:59:31;;;;;;;32.83;24.83;;;;;;;;;;5074489;28;20198;-65
2020/12/13 01:01:57;;;;;;;30.33;23.27;;;;;;;;;;5074062;28;20212;-65
2020/12/13 01:04:24;;;;;;;33.67;26.05;;;;;;;;;;5073655;28;20211;-65
2020/12/13 01:06:51;;;;;;;33.63;24.98;;;;;;;;;;5074251;28;20188;-66
2020/12/13 01:09:20;;;;;;;39.95;27.30;;;;;;;;;;5073385;28;20203;-65
2020/12/13 01:11:47;;;;;;;30.23;24.58;;;;;;;;;;5074192;28;20188;-65
2020/12/13 01:14:15;;;;;;;31.70;23.65;;;;;;;;;;5073536;28;20204;-65
2020/12/13 01:16:45;;;;;;;31.98;24.60;;;;;;;;;;5073643;28;20188;-65
2020/12/13 01:19:12;;;;;;;37.08;25.27;;;;;;;;;;5074063;28;20204;-65
2020/12/13 01:21:39;;;;;;;29.70;23.15;;;;;;;;;;5073796;28;20222;-65
2020/12/13 01:24:06;;;;;;;38.38;24.83;;;;;;;;;;5072359;28;20228;-65
2020/12/13 01:26:35;;;;;;;27.17;22.48;;;;;;;;;;5075376;28;20196;-65
2020/12/13 01:29:02;;;;;;;34.28;22.55;;;;;;;;;;5077426;28;20228;-65
2020/12/13 01:31:30;;;;;;;30.65;23.65;;;;;;;;;;5059516;28;20199;-65
2020/12/13 01:33:56;;;;;;;29.55;23.48;;;;;;;;;;5077662;28;20249;-66
2020/12/13 01:36:24;;;;;;;31.40;21.85;;;;;;;;;;5077513;28;20217;-65
2020/12/13 01:38:51;;;;;;;32.58;23.88;;;;;;;;;;5077324;28;20206;-65
2020/12/13 01:41:21;;;;;;;28.17;21.63;;;;;;;;;;5076404;28;20287;-66
2020/12/13 01:43:55;;;;;;;31.17;23.65;;;;;;;;;;5077482;28;20738;-65
2020/12/13 01:46:22;;;;;;;31.95;22.33;;;;;;;;;;5077455;28;20699;-65
2020/12/13 01:48:54;;;;;;;39.95;23.63;;;;;;;;;;5076698;28;20212;-66
2020/12/13 01:54:20;;;;;;;38.80;23.70;;;;;;;;;;5074841;28;20215;-66
2020/12/13 01:56:48;;;;;;;32.83;23.23;;;;;;;;;;5076753;28;20204;-65
2020/12/13 01:59:17;;;;;;;33.20;23.98;;;;;;;;;;5076584;28;20652;-65
2020/12/13 02:01:48;;;;;;;31.13;24.25;;;;;;;;;;5076346;28;20214;-65
2020/12/13 02:04:22;;;;;;;31.08;24.73;;;;;;;;;;5076612;28;20725;-65
2020/12/13 02:06:52;;;;;;;35.15;23.77;;;;;;;;;;5076342;28;20184;-65
2020/12/13 02:09:22;;;;;;;35.28;24.05;;;;;;;;;;5076615;28;20543;-65
2020/12/13 02:11:51;;;;;;;35.28;24.23;;;;;;;;;;5075241;28;20275;-65
2020/12/13 02:14:21;;;;;;;32.83;25.23;;;;;;;;;;5076128;28;20257;-65
2020/12/13 02:16:48;;;;;;;32.92;24.90;;;;;;;;;;5076175;28;20234;-66
2020/12/13 02:19:15;;;;;;;30.95;25.38;;;;;;;;;;5076303;28;20218;-66
2020/12/13 02:21:52;;;;;;;29.80;24.02;;;;;;;;;;5076250;28;20562;-66
2020/12/13 02:24:23;;;;;;;33.60;24.45;;;;;;;;;;5074783;28;20199;-66
2020/12/13 02:26:52;;;;;;;34.42;24.50;;;;;;;;;;5076056;28;20196;-66
2020/12/13 02:29:19;;;;;;;35.80;25.92;;;;;;;;;;5075892;28;20232;-66
2020/12/13 02:31:45;;;;;;;30.67;23.42;;;;;;;;;;5076177;28;20188;-66
2020/12/13 02:34:12;;;;;;;34.90;24.83;;;;;;;;;;5076203;28;20558;-66
2020/12/13 02:36:39;;;;;;;30.85;25.52;;;;;;;;;;5076098;28;20196;-66
2020/12/13 02:39:06;;;;;;;29.10;24.98;;;;;;;;;;5074809;28;20602;-66
2020/12/13 02:41:34;;;;;;;31.35;23.30;;;;;;;;;;5075660;28;20198;-66
2020/12/13 02:44:03;;;;;;;45.28;25.50;;;;;;;;;;5075555;28;20307;-66
2020/12/13 02:46:32;;;;;;;33.40;25.17;;;;;;;;;;5075713;28;20192;-66
2020/12/13 02:49:01;;;;;;;32.85;25.58;;;;;;;;;;5075470;28;20219;-66
2020/12/13 02:51:30;;;;;;;34.05;24.83;;;;;;;;;;5075613;28;20278;-66
2020/12/13 02:53:57;;;;;;;32.08;25.00;;;;;;;;;;5075852;28;20555;-66
2020/12/13 02:56:23;;;;;;;30.25;23.67;;;;;;;;;;5075551;28;20187;-66
2020/12/13 02:58:50;;;;;;;33.47;23.90;;;;;;;;;;5075558;28;20525;-66
2020/12/13 03:01:16;;;;;;;29.23;22.15;;;;;;;;;;5076014;28;20195;-66
2020/12/13 03:03:46;;;;;;;30.15;22.55;;;;;;;;;;5074884;28;20224;-66
2020/12/13 03:06:17;;;;;;;31.20;23.58;;;;;;;;;;5075206;28;20177;-66
2020/12/13 03:08:44;;;;;;;32.45;22.98;;;;;;;;;;5075514;28;20643;-64
2020/12/13 03:11:10;;;;;;;32.33;23.80;;;;;;;;;;5075220;28;20188;-66
2020/12/13 03:13:37;;;;;;;31.85;22.77;;;;;;;;;;5075248;28;20231;-66
2020/12/13 03:16:04;;;;;;;32.67;23.38;;;;;;;;;;5075126;28;20547;-64
2020/12/13 03:18:30;;;;;;;29.02;22.67;;;;;;;;;;5075441;28;20208;-65
2020/12/13 03:20:57;;;;;;;32.20;22.30;;;;;;;;;;5075248;28;20200;-65
2020/12/13 03:23:24;;;;;;;32.05;22.02;;;;;;;;;;5074942;28;20219;-64
2020/12/13 03:25:51;;;;;;;25.55;20.60;;;;;;;;;;5074930;28;20184;-65
2020/12/13 03:28:17;;;;;;;35.30;21.63;;;;;;;;;;5074826;28;20643;-65
2020/12/13 03:30:45;;;;;;;27.10;20.35;;;;;;;;;;5073308;28;20231;-65
2020/12/13 03:33:12;;;;;;;26.85;21.05;;;;;;;;;;5074690;28;20206;-66
2020/12/13 03:35:39;;;;;;;29.40;20.40;;;;;;;;;;5074638;28;20184;-66
2020/12/13 03:38:05;;;;;;;25.90;19.98;;;;;;;;;;5074608;28;20199;-66
2020/12/13 03:40:35;;;;;;;27.83;20.08;;;;;;;;;;5074484;28;20287;-66
2020/12/13 03:43:03;;;;;;;25.42;20.05;;;;;;;;;;5073456;28;20228;-66
2020/12/13 03:45:31;;;;;;;23.63;19.10;;;;;;;;;;5074279;28;20278;-66
2020/12/13 03:47:57;;;;;;;25.85;18.88;;;;;;;;;;5074351;28;20604;-66
2020/12/13 03:50:38;;;;;;;25.13;18.48;;;;;;;;;;5073368;28;20196;-66
2020/12/13 03:53:08;;;;;;;20.38;16.95;;;;;;;;;;5073010;28;20207;-66
2020/12/13 03:55:35;;;;;;;22.05;17.35;;;;;;;;;;5074671;28;20255;-66
2020/12/13 03:58:02;;;;;;;20.45;16.65;;;;;;;;;;5074477;28;20203;-66
2020/12/13 04:00:29;;;;;;;21.42;17.20;;;;;;;;;;5072382;28;20204;-65
2020/12/13 04:02:56;;;;;;;19.83;16.65;;;;;;;;;;5074264;28;20279;-65
2020/12/13 04:05:23;;;;;;;25.17;17.63;;;;;;;;;;5074328;28;20286;-65
2020/12/13 04:07:51;;;;;;;25.33;18.15;;;;;;;;;;5074070;28;20190;-65
2020/12/13 04:10:18;;;;;;;21.92;18.35;;;;;;;;;;5074359;28;20204;-65
2020/12/13 04:12:45;;;;;;;25.02;18.83;;;;;;;;;;5073882;28;20192;-65
2020/12/13 04:15:11;;;;;;;18.75;16.13;;;;;;;;;;5074023;28;20624;-66
2020/12/13 04:17:41;;;;;;;20.58;16.55;;;;;;;;;;5073543;28;20222;-66
2020/12/13 04:20:08;;;;;;;18.67;16.17;;;;;;;;;;5073915;28;20196;-65
2020/12/13 04:22:35;;;;;;;17.27;14.45;;;;;;;;;;5072635;28;20211;-66
2020/12/13 04:25:01;;;;;;;22.23;17.00;;;;;;;;;;5074031;28;20220;-65
2020/12/13 04:27:28;;;;;;;17.65;13.48;;;;;;;;;;5073658;28;20195;-65
2020/12/13 04:29:55;;;;;;;18.40;16.52;;;;;;;;;;5073628;28;20258;-65
2020/12/13 04:32:21;;;;;;;20.38;15.55;;;;;;;;;;5073661;28;20283;-65
2020/12/13 04:34:49;;;;;;;27.98;19.70;;;;;;;;;;5073763;28;20196;-65
2020/12/13 04:37:15;;;;;;;31.55;25.27;;;;;;;;;;5073712;28;20237;-65
2020/12/13 04:39:45;;;;;;;20.30;16.48;;;;;;;;;;5073502;28;20206;-65
2020/12/13 04:42:12;;;;;;;20.92;16.60;;;;;;;;;;5073600;28;20183;-65
2020/12/13 04:44:38;;;;;;;18.50;16.50;;;;;;;;;;5073478;28;20547;-65
2020/12/13 04:47:08;;;;;;;24.25;19.25;;;;;;;;;;5073492;28;20257;-65
2020/12/13 04:49:36;;;;;;;18.65;14.10;;;;;;;;;;5073447;28;20216;-65
2020/12/13 04:52:05;;;;;;;22.45;19.30;;;;;;;;;;5073516;28;20188;-65
2020/12/13 04:54:31;;;;;;;20.35;16.15;;;;;;;;;;5073340;28;20195;-65
2020/12/13 04:56:59;;;;;;;16.20;12.88;;;;;;;;;;5072344;28;20199;-65
2020/12/13 04:59:26;;;;;;;31.52;28.52;;;;;;;;;;5073516;28;20571;-65
2020/12/13 05:01:56;;;;;;;26.83;24.42;;;;;;;;;;5076298;28;20192;-65
2020/12/13 05:04:23;;;;;;;18.77;14.75;;;;;;;;;;5077929;28;20203;-65
2020/12/13 05:06:49;;;;;;;16.85;15.05;;;;;;;;;;5077532;28;20678;-65
2020/12/13 05:09:16;;;;;;;13.55;11.75;;;;;;;;;;5077357;28;20199;-65
2020/12/13 05:11:44;;;;;;;12.75;11.45;;;;;;;;;;5077212;28;20564;-65
2020/12/13 05:14:10;;;;;;;13.35;11.20;;;;;;;;;;5077237;28;20192;-65
2020/12/13 05:16:37;;;;;;;13.45;12.07;;;;;;;;;;5077111;28;20192;-65
2020/12/13 05:19:07;;;;;;;11.95;10.32;;;;;;;;;;5077195;28;20192;-65
2020/12/13 05:21:35;;;;;;;11.65;10.35;;;;;;;;;;5076885;28;20211;-65
2020/12/13 05:24:06;;;;;;;12.90;11.18;;;;;;;;;;5075873;28;20231;-65
2020/12/13 05:26:35;;;;;;;12.05;9.57;;;;;;;;;;5077293;28;20196;-65
2020/12/13 05:29:04;;;;;;;15.98;11.23;;;;;;;;;;5077050;28;20566;-65
2020/12/13 05:31:40;;;;;;;14.73;11.00;;;;;;;;;;5076912;28;20663;-64
2020/12/13 05:34:14;;;;;;;12.10;10.07;;;;;;;;;;5076879;28;20204;-65
2020/12/13 05:36:45;;;;;;;12.10;10.45;;;;;;;;;;5076858;28;20184;-65
2020/12/13 05:39:12;;;;;;;11.73;10.45;;;;;;;;;;5077187;28;20208;-65
2020/12/13 05:41:41;;;;;;;15.55;10.80;;;;;;;;;;5076870;28;20200;-65
2020/12/13 05:44:34;;;;;;;11.02;9.60;;;;;;;;;;5075418;28;20303;-65
2020/12/13 05:48:18;;;;;;;12.18;8.95;;;;;;;;;;5076627;28;20192;-65
2020/12/13 05:52:50;;;;;;;12.77;10.55;;;;;;;;;;5076376;28;20279;-65
2020/12/13 05:55:18;;;;;;;14.43;8.95;;;;;;;;;;5076103;28;20203;-65
2020/12/13 05:57:48;;;;;;;10.82;8.57;;;;;;;;;;5075207;28;20198;-65
2020/12/13 06:00:17;;;;;;;14.68;9.30;;;;;;;;;;5076328;28;20264;-65
2020/12/13 06:02:49;;;;;;;11.65;8.55;;;;;;;;;;5076608;28;20192;-65
2020/12/13 06:05:16;;;;;;;8.85;7.40;;;;;;;;;;5076740;28;20227;-65
2020/12/13 06:07:49;;;;;;;9.38;8.38;;;;;;;;;;5076569;28;20200;-65
2020/12/13 06:10:25;;;;;;;9.20;8.10;;;;;;;;;;5077318;28;20567;-65
2020/12/13 06:12:59;;;;;;;12.25;8.10;;;;;;;;;;5075184;28;20207;-65
2020/12/13 06:15:27;;;;;;;9.20;8.30;;;;;;;;;;5074856;28;20208;-65
2020/12/13 06:17:54;;;;;;;12.27;8.20;;;;;;;;;;5076446;28;20226;-65
2020/12/13 06:20:22;;;;;;;12.40;8.65;;;;;;;;;;5076253;28;20196;-66
2020/12/13 06:22:54;;;;;;;8.85;7.88;;;;;;;;;;5076433;28;20631;-66
2020/12/13 06:25:21;;;;;;;9.70;7.78;;;;;;;;;;5076184;28;20212;-66
2020/12/13 06:27:48;;;;;;;8.98;8.18;;;;;;;;;;5076096;28;20188;-66
2020/12/13 06:30:15;;;;;;;8.63;7.82;;;;;;;;;;5075691;28;20726;-65
2020/12/13 06:32:43;;;;;;;9.18;8.27;;;;;;;;;;5076035;28;20218;-65
2020/12/13 06:35:12;;;;;;;10.90;8.23;;;;;;;;;;5076047;28;20204;-64
2020/12/13 06:37:39;;;;;;;11.07;9.38;;;;;;;;;;5075791;28;20199;-65
2020/12/13 06:40:10;;;;;;;9.40;8.45;;;;;;;;;;5075742;28;20553;-65
2020/12/13 06:42:40;;;;;;;11.52;9.43;;;;;;;;;;5075807;28;20264;-64
2020/12/13 06:45:11;;;;;;;8.95;8.05;;;;;;;;;;5074250;28;20679;-64
2020/12/13 06:47:40;;;;;;;10.23;9.18;;;;;;;;;;5075683;28;20227;-64
2020/12/13 06:50:11;;;;;;;10.90;8.90;;;;;;;;;;5074149;28;20206;-64
2020/12/13 06:52:37;;;;;;;12.20;9.07;;;;;;;;;;5075881;28;20564;-65
2020/12/13 06:55:07;;;;;;;10.02;9.00;;;;;;;;;;5075663;28;20188;-64
2020/12/13 06:57:35;;;;;;;13.27;8.88;;;;;;;;;;5074200;28;20214;-64
2020/12/13 07:00:09;;;;;;;8.70;8.00;;;;;;;;;;5075374;28;20210;-64
2020/12/13 07:02:58;;;;;;;9.07;8.25;;;;;;;;;;5075616;28;20204;-65
2020/12/13 07:05:54;;;;;;;10.15;8.00;;;;;;;;;;5074101;28;20232;-64
2020/12/13 07:08:23;;;;;;;9.27;7.15;;;;;;;;;;5073530;28;20277;-65
2020/12/13 07:10:52;;;;;;;11.32;8.15;;;;;;;;;;5075420;28;20527;-65
2020/12/13 07:13:22;;;;;;;7.75;6.97;;;;;;;;;;5075187;28;20224;-64
2020/12/13 07:15:56;;;;;;;8.70;7.90;;;;;;;;;;5075246;28;20208;-65
2020/12/13 07:18:23;;;;;;;10.02;9.13;;;;;;;;;;5075127;28;20261;-65
2020/12/13 07:20:50;;;;;;;11.68;10.48;;;;;;;;;;5075183;28;20540;-66
2020/12/13 07:23:19;;;;;;;9.25;8.35;;;;;;;;;;5074638;28;20188;-65
2020/12/13 07:25:46;;;;;;;8.88;7.97;;;;;;;;;;5074954;28;20223;-66
2020/12/13 07:28:13;;;;;;;9.20;7.00;;;;;;;;;;5073555;28;20215;-65
2020/12/13 07:30:40;;;;;;;13.38;11.13;;;;;;;;;;5074559;28;20236;-65
2020/12/13 07:33:07;;;;;;;7.50;6.90;;;;;;;;;;5074718;28;20242;-65
2020/12/13 07:35:41;;;;;;;10.07;7.20;;;;;;;;;;5074946;28;20180;-66
2020/12/13 07:38:09;;;;;;;6.72;6.03;;;;;;;;;;5074986;28;20204;-65
2020/12/13 07:40:38;;;;;;;23.20;20.48;;;;;;;;;;5074569;28;20192;-65
2020/12/13 07:43:05;;;;;;;19.77;17.25;;;;;;;;;;5074449;28;20188;-66
2020/12/13 07:45:32;;;;;;;10.82;9.82;;;;;;;;;;5072896;28;20227;-64
2020/12/13 07:48:02;;;;;;;7.05;6.38;;;;;;;;;;5074444;28;20671;-64
2020/12/13 07:50:34;;;;;;;7.15;6.45;;;;;;;;;;5074538;28;20207;-64
2020/12/13 07:53:03;;;;;;;8.25;5.15;;;;;;;;;;5074894;28;20194;-66
2020/12/13 07:55:30;;;;;;;5.72;5.13;;;;;;;;;;5074197;28;20188;-65
2020/12/13 07:57:57;;;;;;;6.13;5.53;;;;;;;;;;5074130;28;20263;-64
2020/12/13 08:00:26;;;;;;;4.95;4.55;;;;;;;;;;5074262;28;20191;-65
2020/12/13 08:02:57;;;;;;;5.10;4.60;;;;;;;;;;5074383;28;20184;-65
2020/12/13 08:05:27;;;;;;;6.05;5.00;;;;;;;;;;5073914;28;20231;-65
2020/12/13 08:07:58;;;;;;;9.00;5.35;;;;;;;;;;5074166;28;20534;-65
2020/12/13 08:10:28;;;;;;;7.70;4.90;;;;;;;;;;5073954;28;20215;-64
2020/12/13 08:12:55;;;;;;;5.20;4.55;;;;;;;;;;5056156;28;20207;-65
2020/12/13 08:15:22;;;;;;;5.05;4.55;;;;;;;;;;5073979;28;20198;-65
2020/12/13 08:18:00;;;;;;;4.95;3.75;;;;;;;;;;5074486;28;20199;-65
2020/12/13 08:20:28;;;;;;;4.57;4.18;;;;;;;;;;5073882;28;20204;-65
2020/12/13 08:22:55;;;;;;;5.47;4.30;;;;;;;;;;5074940;28;20571;-65
2020/12/13 08:25:22;;;;;;;6.03;3.70;;;;;;;;;;5073588;28;20220;-65
2020/12/13 08:27:49;;;;;;;5.93;4.63;;;;;;;;;;5073766;28;20246;-65
2020/12/13 08:30:18;;;;;;;5.35;3.63;;;;;;;;;;5073570;28;20228;-66
2020/12/13 08:32:47;;;;;;;4.63;4.20;;;;;;;;;;5073682;28;20207;-66
2020/12/13 08:35:15;;;;;;;11.55;4.85;;;;;;;;;;5073301;28;20188;-66
2020/12/13 08:37:53;;;;;;;5.25;4.57;;;;;;;;;;5073571;28;20203;-66
2020/12/13 08:40:33;;;;;;;4.45;4.05;;;;;;;;;;5073628;28;20262;-66
2020/12/13 08:43:00;;;;;;;6.18;4.50;;;;;;;;;;5073549;28;20198;-65
2020/12/13 08:45:28;;;;;;;5.07;4.53;;;;;;;;;;5072904;28;20247;-65
2020/12/13 08:48:00;;;;;;;4.93;3.97;;;;;;;;;;5073539;28;20222;-65
2020/12/13 08:50:27;;;;;;;4.57;4.15;;;;;;;;;;5072319;28;20204;-65
2020/12/13 08:52:57;;;;;;;6.32;4.70;;;;;;;;;;5059017;28;20195;-66
2020/12/13 08:55:26;;;;;;;4.60;3.90;;;;;;;;;;5073171;28;20214;-66
2020/12/13 08:58:00;;;;;;;4.95;4.55;;;;;;;;;;5071816;28;20698;-66
2020/12/13 09:00:29;;;;;;;5.82;4.15;;;;;;;;;;5060995;28;20188;-66
2020/12/13 09:02:57;;;;;;;5.57;4.38;;;;;;;;;;5057259;28;20651;-66
2020/12/13 09:05:31;;;;;;;4.03;3.72;;;;;;;;;;5072808;28;20204;-66
2020/12/13 09:07:59;;;;;;;5.18;4.55;;;;;;;;;;5072576;28;20215;-66
2020/12/13 09:10:26;;;;;;;5.75;4.50;;;;;;;;;;5072837;28;20199;-66
2020/12/13 09:12:54;;;;;;;3.88;3.65;;;;;;;;;;5072588;28;20223;-66
2020/12/13 09:15:22;;;;;;;4.47;3.97;;;;;;;;;;5072937;28;20200;-66
2020/12/13 09:17:55;;;;;;;5.63;4.20;;;;;;;;;;5072755;28;20268;-66
2020/12/13 09:20:26;;;;;;;8.52;3.90;;;;;;;;;;5059969;28;20191;-65
2020/12/13 09:23:02;;;;;;;6.13;4.30;;;;;;;;;;5072747;28;20194;-65
2020/12/13 09:25:29;;;;;;;4.85;4.32;;;;;;;;;;5069281;28;20227;-65
2020/12/13 09:28:02;;;;;;;5.82;4.25;;;;;;;;;;5073406;28;20184;-65
2020/12/13 09:30:28;;;;;;;5.00;4.00;;;;;;;;;;5073226;28;20700;-66
2020/12/13 09:32:55;;;;;;;4.50;4.20;;;;;;;;;;5072288;28;20644;-65
2020/12/13 09:35:22;;;;;;;4.70;4.03;;;;;;;;;;5073355;28;20218;-65
2020/12/13 09:37:48;;;;;;;11.50;4.57;;;;;;;;;;5073149;28;20176;-65
2020/12/13 09:40:15;;;;;;;4.90;4.20;;;;;;;;;;5072910;28;20188;-65
2020/12/13 09:42:54;;;;;;;5.28;4.78;;;;;;;;;;5073981;28;20191;-65
2020/12/13 09:45:21;;;;;;;5.57;4.90;;;;;;;;;;5073030;28;20222;-65
2020/12/13 09:47:55;;;;;;;6.53;4.78;;;;;;;;;;5075096;28;20616;-65
2020/12/13 09:50:26;;;;;;;6.10;4.63;;;;;;;;;;5075636;28;20210;-66
2020/12/13 09:52:53;;;;;;;7.00;5.18;;;;;;;;;;5076942;28;20195;-66
2020/12/13 09:55:21;;;;;;;5.78;5.18;;;;;;;;;;5077401;28;20280;-66
2020/12/13 09:57:48;;;;;;;7.20;5.22;;;;;;;;;;5076858;28;20202;-66
2020/12/13 10:00:17;;;;;;;7.28;5.22;;;;;;;;;;5076586;28;20192;-66
2020/12/13 10:02:46;;;;;;;6.03;5.47;;;;;;;;;;5076398;28;20191;-66
2020/12/13 10:05:22;;;;;;;14.23;7.15;;;;;;;;;;5076471;28;20216;-66
2020/12/13 10:10:39;;;;;;;6.72;6.05;;;;;;;;;;5075536;28;20200;-66
2020/12/13 10:13:05;;;;;;;7.00;5.78;;;;;;;;;;5076267;28;20196;-65
2020/12/13 10:15:32;;;;;;;15.63;6.95;;;;;;;;;;5076464;28;20192;-65
2020/12/13 10:17:58;;;;;;;8.35;5.75;;;;;;;;;;5076520;28;20192;-65
2020/12/13 10:20:26;;;;;;;11.85;6.60;;;;;;;;;;5076335;28;20239;-64
2020/12/13 10:22:55;;;;;;;8.00;6.97;;;;;;;;;;5076167;28;20188;-66
2020/12/13 10:25:24;;;;;;;11.38;6.03;;;;;;;;;;5076072;28;20223;-65
2020/12/13 10:27:50;;;;;;;7.40;5.50;;;;;;;;;;5076147;28;20288;-66
2020/12/13 10:30:23;;;;;;;9.32;5.65;;;;;;;;;;5075824;28;20235;-65
2020/12/13 10:32:57;;;;;;;8.45;6.60;;;;;;;;;;5075752;28;20206;-65
2020/12/13 10:35:25;;;;;;;10.70;6.20;;;;;;;;;;5075828;28;20176;-65
2020/12/13 10:37:51;;;;;;;7.22;5.10;;;;;;;;;;5076080;28;20195;-65
2020/12/13 10:40:19;;;;;;;7.30;4.88;;;;;;;;;;5075851;28;20187;-66
2020/12/13 10:42:46;;;;;;;8.60;4.15;;;;;;;;;;5075746;28;20211;-66
2020/12/13 10:45:12;;;;;;;13.07;4.13;;;;;;;;;;5075643;28;20215;-66
2020/12/13 10:47:40;;;;;;;4.47;3.92;;;;;;;;;;5074664;28;20707;-65
2020/12/13 10:50:07;;;;;;;6.22;4.50;;;;;;;;;;5075848;28;20196;-66
2020/12/13 10:52:36;;;;;;;3.45;2.92;;;;;;;;;;5074150;28;20207;-67
2020/12/13 10:55:02;;;;;;;4.30;2.72;;;;;;;;;;5075721;28;20654;-66
2020/12/13 10:57:30;;;;;;;3.25;3.05;;;;;;;;;;5074421;28;20667;-66
2020/12/13 11:00:00;;;;;;;3.80;2.80;;;;;;;;;;5074861;28;20172;-66
2020/12/13 11:02:27;;;;;;;5.18;3.25;;;;;;;;;;5075525;28;20191;-66
2020/12/13 11:04:54;;;;;;;4.60;3.80;;;;;;;;;;5075590;28;20278;-66
2020/12/13 11:07:22;;;;;;;2.85;2.33;;;;;;;;;;5076395;28;20242;-66
2020/12/13 11:09:49;;;;;;;2.67;2.03;;;;;;;;;;5074429;28;20291;-66
2020/12/13 11:12:15;;;;;;;2.65;2.45;;;;;;;;;;5075681;28;20194;-66
2020/12/13 11:14:42;;;;;;;2.60;2.00;;;;;;;;;;5075623;28;20215;-66
2020/12/13 11:17:11;;;;;;;2.10;1.85;;;;;;;;;;5074881;28;20196;-66
2020/12/13 11:19:40;;;;;;;4.22;2.30;;;;;;;;;;5075077;28;20203;-66
2020/12/13 11:22:06;;;;;;;1.90;1.80;;;;;;;;;;5073904;28;20565;-65
2020/12/13 11:24:33;;;;;;;2.22;1.85;;;;;;;;;;5075071;28;20203;-65
2020/12/13 11:26:59;;;;;;;3.08;2.20;;;;;;;;;;5075056;28;20211;-65
2020/12/13 11:29:26;;;;;;;5.60;3.80;;;;;;;;;;5074597;28;20223;-65
2020/12/13 11:31:53;;;;;;;6.97;2.60;;;;;;;;;;5074945;28;20194;-65
2020/12/13 11:34:25;;;;;;;2.13;1.70;;;;;;;;;;5075211;28;20616;-66
2020/12/13 11:36:51;;;;;;;3.97;3.67;;;;;;;;;;5074870;28;20570;-64
2020/12/13 11:39:18;;;;;;;3.47;2.30;;;;;;;;;;5074765;28;20191;-64
2020/12/13 11:41:46;;;;;;;3.83;2.03;;;;;;;;;;5073138;28;20220;-66
2020/12/13 11:44:15;;;;;;;2.60;1.98;;;;;;;;;;5074804;28;20640;-66
2020/12/13 11:46:41;;;;;;;2.78;2.05;;;;;;;;;;5074453;28;20554;-66
2020/12/13 11:49:08;;;;;;;2.10;1.90;;;;;;;;;;5074452;28;20230;-66
2020/12/13 11:51:35;;;;;;;5.43;1.90;;;;;;;;;;5074644;28;20698;-66
2020/12/13 11:54:01;;;;;;;3.00;1.95;;;;;;;;;;5074808;28;20200;-66
2020/12/13 11:56:28;;;;;;;3.38;1.88;;;;;;;;;;5075341;28;20192;-66
2020/12/13 11:58:54;;;;;;;2.60;1.88;;;;;;;;;;5074329;28;20195;-66
2020/12/13 12:01:21;;;;;;;3.15;2.30;;;;;;;;;;5074266;28;20192;-66
2020/12/13 12:03:48;;;;;;;5.47;2.35;;;;;;;;;;5074382;28;20631;-66
2020/12/13 12:06:15;;;;;;;6.90;2.42;;;;;;;;;;5073959;28;20671;-66
2020/12/13 12:08:42;;;;;;;3.35;1.85;;;;;;;;;;5074457;28;20192;-66
2020/12/13 12:11:10;;;;;;;5.13;2.17;;;;;;;;;;5073191;28;20585;-66
2020/12/13 12:13:36;;;;;;;7.65;5.50;;;;;;;;;;5074079;28;20199;-66
2020/12/13 12:16:03;;;;;;;2.38;2.17;;;;;;;;;;5074684;28;20202;-66
2020/12/13 12:18:34;;;;;;;5.97;4.38;;;;;;;;;;5073912;28;20238;-66
2020/12/13 12:21:16;;;;;;;4.38;2.47;;;;;;;;;;5073888;28;20241;-66
2020/12/13 12:23:42;;;;;;;7.28;3.88;;;;;;;;;;5074243;28;20203;-66
2020/12/13 12:26:09;;;;;;;2.20;2.10;;;;;;;;;;5073171;28;20227;-66
2020/12/13 12:28:36;;;;;;;5.90;3.67;;;;;;;;;;5073849;28;20204;-66
2020/12/13 12:31:04;;;;;;;4.90;2.28;;;;;;;;;;5074654;28;20218;-66
2020/12/13 12:33:30;;;;;;;6.07;4.22;;;;;;;;;;5073704;28;20198;-66
2020/12/13 12:35:57;;;;;;;8.27;5.82;;;;;;;;;;5073608;28;20188;-66
2020/12/13 12:38:23;;;;;;;4.68;2.45;;;;;;;;;;5073476;28;20207;-66
2020/12/13 12:40:50;;;;;;;6.18;3.72;;;;;;;;;;5072743;28;20215;-66
2020/12/13 12:43:17;;;;;;;3.47;2.35;;;;;;;;;;5073664;28;20187;-66
2020/12/13 12:45:44;;;;;;;3.58;2.30;;;;;;;;;;5073640;28;20215;-66
2020/12/13 12:48:11;;;;;;;3.67;1.90;;;;;;;;;;5073982;28;20212;-66
2020/12/13 12:50:40;;;;;;;2.58;2.33;;;;;;;;;;5074453;28;20203;-66
2020/12/13 12:53:07;;;;;;;10.95;6.68;;;;;;;;;;5073784;28;20278;-66
2020/12/13 12:55:33;;;;;;;8.57;4.78;;;;;;;;;;5073422;28;20648;-66
2020/12/13 12:58:02;;;;;;;6.63;4.10;;;;;;;;;;5073935;28;20550;-66
2020/12/13 13:00:37;;;;;;;5.13;3.20;;;;;;;;;;5073554;28;20246;-66
2020/12/13 13:03:05;;;;;;;6.53;2.58;;;;;;;;;;5072240;28;20207;-66
2020/12/13 13:08:34;;;;;;;3.42;3.08;;;;;;;;;;5073662;28;20659;-66
2020/12/13 13:11:36;;;;;;;2.45;2.25;;;;;;;;;;5055884;28;20224;-67
2020/12/13 13:13:55;;;;;;;2.58;1.70;;;;;;;;;;5072853;28;20627;-66
2020/12/13 13:16:21;;;;;;;2.15;2.05;;;;;;;;;;5072345;28;20553;-67
2020/12/13 13:18:48;;;;;;;3.90;3.55;;;;;;;;;;5073546;28;20283;-66
2020/12/13 13:21:20;;;;;;;3.15;2.10;;;;;;;;;;5073178;28;20200;-66
2020/12/13 13:23:50;;;;;;;7.85;3.55;;;;;;;;;;5077086;28;20291;-67
2020/12/13 13:26:21;;;;;;;3.42;2.70;;;;;;;;;;5076295;28;20277;-66
2020/12/13 13:28:48;;;;;;;2.80;2.50;;;;;;;;;;5076895;28;20196;-66
2020/12/13 13:31:17;;;;;;;2.67;2.45;;;;;;;;;;5077167;28;20211;-66
2020/12/13 13:33:52;;;;;;;4.53;2.80;;;;;;;;;;5077112;28;20199;-67
2020/12/13 13:36:21;;;;;;;5.60;3.33;;;;;;;;;;5076769;28;20203;-66
2020/12/13 13:38:48;;;;;;;5.47;3.97;;;;;;;;;;5077093;28;20677;-66
2020/12/13 13:41:23;;;;;;;4.50;3.10;;;;;;;;;;5075339;28;20195;-66
2020/12/13 13:43:53;;;;;;;5.75;3.33;;;;;;;;;;5076805;28;20219;-66
2020/12/13 13:46:39;;;;;;;4.55;4.15;;;;;;;;;;5076525;28;20279;-66
2020/12/13 13:51:52;;;;;;;5.13;4.10;;;;;;;;;;5076529;28;20596;-66
2020/12/13 13:54:20;;;;;;;4.22;3.92;;;;;;;;;;5076375;28;20188;-66
2020/12/13 13:57:31;;;;;;;3.83;3.42;;;;;;;;;;5076518;28;20192;-67
2020/12/13 13:59:41;;;;;;;4.05;3.00;;;;;;;;;;5075816;28;20295;-65
2020/12/13 14:02:09;;;;;;;6.65;4.20;;;;;;;;;;5075021;28;20279;-65
2020/12/13 14:04:37;;;;;;;11.77;6.40;;;;;;;;;;5075972;28;20202;-65
2020/12/13 14:09:46;;;;;;;7.30;4.60;;;;;;;;;;5076473;28;20258;-66
2020/12/13 14:12:16;;;;;;;5.28;3.72;;;;;;;;;;5076204;28;20241;-65
2020/12/13 14:14:46;;;;;;;4.82;3.40;;;;;;;;;;5076109;28;20624;-66
2020/12/13 14:17:12;;;;;;;6.78;3.72;;;;;;;;;;5076025;28;20191;-65
2020/12/13 14:19:39;;;;;;;3.72;3.17;;;;;;;;;;5076271;28;20192;-66
2020/12/13 14:22:10;;;;;;;3.15;2.53;;;;;;;;;;5076449;28;20199;-65
2020/12/13 14:24:37;;;;;;;3.50;2.90;;;;;;;;;;5075852;28;20195;-65
2020/12/13 14:27:03;;;;;;;5.68;3.17;;;;;;;;;;5076692;28;20541;-66
2020/12/13 14:29:30;;;;;;;4.43;2.80;;;;;;;;;;5075748;28;20220;-66
2020/12/13 14:31:57;;;;;;;4.10;2.72;;;;;;;;;;5077479;28;20188;-66
2020/12/13 14:34:24;;;;;;;6.05;4.15;;;;;;;;;;5074722;28;20249;-66
2020/12/13 14:36:52;;;;;;;6.22;4.55;;;;;;;;;;5074652;28;20192;-66
2020/12/13 14:39:19;;;;;;;5.65;3.25;;;;;;;;;;5076424;28;20196;-66
2020/12/13 14:41:53;;;;;;;9.95;4.10;;;;;;;;;;5076353;28;20313;-66
2020/12/13 14:44:21;;;;;;;3.90;3.50;;;;;;;;;;5060782;28;20670;-66
2020/12/13 14:46:49;;;;;;;3.58;2.97;;;;;;;;;;5060747;28;20226;-66
2020/12/13 14:49:15;;;;;;;3.97;2.95;;;;;;;;;;5074908;28;20216;-66
2020/12/13 14:51:45;;;;;;;7.88;4.85;;;;;;;;;;5075030;28;20639;-66
2020/12/13 14:54:12;;;;;;;7.20;5.25;;;;;;;;;;5074643;28;20207;-67
2020/12/13 14:56:38;;;;;;;10.30;5.97;;;;;;;;;;5074937;28;20806;-66